Time;durP1;ratioP1;P1;durP2;ratioP2;P2;SDS_P1;SDS_P2;PMS_P1;PMS_P2;Temp;Humidity;BMP_temperature;BMP_pressure;BME280_temperature;BME280_humidity;BME280_pressure;Samples;Min_cycle;Max_cycle;Signal;HPM_P1;HPM_P2
2023/03/12 11:32:22;;;;;;;1.30;1.30;;;12.50;63.60;;;;;;5027795;28;2281190;-71
2023/03/12 11:34:49;;;;;;;1.73;1.40;;;12.50;64.60;;;;;;5075026;28;20040;-71
2023/03/12 11:37:20;;;;;;;1.65;1.38;;;12.40;64.00;;;;;;5089439;28;20458;-71
2023/03/12 11:40:25;;;;;;;1.45;1.35;;;12.40;64.00;;;;;;5092599;28;20121;-71
2023/03/12 11:43:28;;;;;;;1.42;1.33;;;12.30;63.60;;;;;;5092313;28;20028;-73
2023/03/12 11:46:27;;;;;;;1.30;1.20;;;12.20;63.70;;;;;;5092358;28;20020;-70
2023/03/12 11:49:30;;;;;;;1.20;1.20;;;12.10;63.70;;;;;;5054620;28;20432;-72
2023/03/12 11:52:06;;;;;;;1.27;1.27;;;12.10;63.70;;;;;;5072298;28;20028;-71
2023/03/12 11:55:11;;;;;;;1.45;1.35;;;12.00;64.00;;;;;;5071211;28;20029;-72
2023/03/12 11:57:58;;;;;;;1.40;1.40;;;11.90;63.70;;;;;;5040262;28;20062;-72
2023/03/12 12:00:43;;;;;;;1.38;1.38;;;11.90;63.90;;;;;;5070668;28;20078;-72
2023/03/12 12:03:21;;;;;;;;;;;11.80;64.00;;;;;;5062116;28;20039;-73
2023/03/12 12:05:51;;;;;;;1.20;1.20;;;11.70;63.30;;;;;;5059131;28;20037;-72
2023/03/12 12:08:47;;;;;;;1.40;1.40;;;11.80;64.10;;;;;;5073203;28;20033;-73
2023/03/12 12:11:34;;;;;;;1.40;1.30;;;11.70;63.90;;;;;;5054700;28;20351;-73
2023/03/12 12:14:21;;;;;;;1.20;1.20;;;11.70;64.00;;;;;;5054398;28;20415;-73
2023/03/12 12:16:57;;;;;;;1.38;1.30;;;11.70;64.10;;;;;;5053762;28;20470;-73
2023/03/12 12:19:57;;;;;;;1.45;1.35;;;11.70;64.10;;;;;;5054271;28;20029;-73
2023/03/12 12:22:37;;;;;;;1.30;1.30;;;11.70;63.90;;;;;;5072009;28;20078;-73
2023/03/12 12:25:28;;;;;;;1.38;1.33;;;11.70;64.00;;;;;;5054717;28;20024;-74
2023/03/12 12:28:07;;;;;;;1.38;1.30;;;11.70;63.80;;;;;;5071596;28;20056;-73
2023/03/12 12:30:45;;;;;;;1.38;1.38;;;11.70;64.00;;;;;;5054016;28;20120;-72
2023/03/12 12:33:23;;;;;;;1.40;1.40;;;11.70;63.80;;;;;;5063285;28;20059;-73
2023/03/12 12:35:49;;;;;;;1.58;1.48;;;11.70;63.90;;;;;;5071046;28;20043;-72
2023/03/12 12:38:34;;;;;;;1.20;1.20;;;11.70;63.90;;;;;;5073944;28;20037;-73
2023/03/12 12:41:13;;;;;;;1.50;1.40;;;11.70;63.70;;;;;;5075668;28;20055;-72
2023/03/12 12:43:40;;;;;;;1.30;1.30;;;11.70;63.70;;;;;;5076423;28;20036;-72
2023/03/12 12:46:37;;;;;;;1.25;1.25;;;11.80;63.70;;;;;;5074806;28;20032;-74
2023/03/12 12:49:23;;;;;;;1.80;1.70;;;11.80;63.40;;;;;;5054941;28;20144;-71
2023/03/12 12:52:03;;;;;;;1.30;1.30;;;11.80;63.60;;;;;;5073791;28;20055;-73
2023/03/12 12:54:32;;;;;;;1.30;1.20;;;11.90;63.50;;;;;;5074729;28;20330;-73
2023/03/12 12:57:19;;;;;;;1.20;1.20;;;11.90;63.50;;;;;;5074257;28;20028;-73
2023/03/12 12:59:53;;;;;;;1.30;1.30;;;11.90;63.30;;;;;;5091253;28;20059;-73
2023/03/12 13:02:23;;;;;;;1.55;1.45;;;11.90;63.30;;;;;;5076084;28;20374;-74
2023/03/12 13:04:49;;;;;;;1.10;1.10;;;11.90;63.30;;;;;;5075468;28;20064;-73
2023/03/12 13:07:15;;;;;;;1.10;1.10;;;11.90;63.30;;;;;;5090808;28;20032;-76
2023/03/12 13:09:46;;;;;;;1.30;1.30;;;11.90;63.30;;;;;;5073979;28;20079;-73
2023/03/12 13:12:24;;;;;;;1.55;1.45;;;11.90;63.20;;;;;;5075400;28;20116;-74
2023/03/12 13:14:50;;;;;;;1.60;1.50;;;11.90;63.20;;;;;;5075771;28;20111;-74
2023/03/12 13:17:26;;;;;;;1.45;1.45;;;12.00;63.20;;;;;;5074039;28;20040;-73
2023/03/12 13:20:15;;;;;;;1.40;1.40;;;12.00;63.10;;;;;;5075484;28;20493;-73
2023/03/12 13:23:08;;;;;;;1.23;1.23;;;12.10;62.90;;;;;;5074131;28;20037;-73
2023/03/12 13:25:40;;;;;;;1.45;1.35;;;12.10;62.80;;;;;;5074967;28;20436;-76
2023/03/12 13:28:39;;;;;;;1.10;1.10;;;12.20;62.90;;;;;;5073756;28;20386;-72
2023/03/12 13:31:13;;;;;;;1.23;1.23;;;12.20;62.50;;;;;;5060177;28;20037;-74
2023/03/12 13:33:41;;;;;;;1.60;1.50;;;12.30;62.80;;;;;;5105144;28;20108;-72
2023/03/12 13:36:16;;;;;;;1.23;1.13;;;12.40;62.80;;;;;;5110546;28;20024;-74
2023/03/12 13:38:59;;;;;;;1.63;1.50;;;12.50;62.60;;;;;;5105412;28;20027;-73
2023/03/12 13:41:39;;;;;;;1.42;1.33;;;12.70;62.40;;;;;;5111501;28;20028;-71
2023/03/12 13:44:30;;;;;;;1.45;1.35;;;12.80;62.10;;;;;;5115289;28;20032;-71
2023/03/12 13:47:10;;;;;;;1.30;1.30;;;12.90;61.80;;;;;;5095830;28;20015;-74
2023/03/12 13:49:46;;;;;;;1.15;1.15;;;12.90;62.00;;;;;;5095042;28;20023;-72
2023/03/12 13:52:29;;;;;;;1.00;1.00;;;12.90;61.80;;;;;;5114716;28;20373;-72
2023/03/12 13:55:24;;;;;;;1.00;1.00;;;12.90;61.70;;;;;;5095978;28;20469;-71
2023/03/12 13:58:07;;;;;;;1.20;1.17;;;12.80;61.40;;;;;;5114907;28;20032;-72
2023/03/12 14:00:47;;;;;;;1.10;1.10;;;12.80;61.70;;;;;;5114755;28;20453;-70
2023/03/12 14:03:27;;;;;;;1.15;1.15;;;12.70;61.70;;;;;;5096575;28;20400;-71
2023/03/12 14:06:04;;;;;;;1.40;1.30;;;12.60;61.70;;;;;;5114935;28;20492;-70
2023/03/12 14:08:50;;;;;;;1.20;1.20;;;12.60;62.00;;;;;;5114558;28;20028;-70
2023/03/12 14:11:25;;;;;;;1.27;1.27;;;12.70;61.70;;;;;;5114781;28;20473;-71
2023/03/12 14:14:09;;;;;;;;;;;12.70;61.80;;;;;;5097306;28;20027;-72
2023/03/12 14:16:50;;;;;;;1.30;1.30;;;12.60;61.00;;;;;;5114550;28;19911;-72
2023/03/12 14:19:25;;;;;;;1.40;1.40;;;12.70;61.60;;;;;;5096449;28;20035;-72
2023/03/12 14:21:52;;;;;;;1.27;1.27;;;12.50;61.50;;;;;;5114651;28;20524;-73
2023/03/12 14:24:39;;;;;;;1.63;1.58;;;12.50;62.20;;;;;;5096552;28;20020;-76
2023/03/12 14:27:13;;;;;;;1.20;1.20;;;12.40;61.60;;;;;;5114760;28;20104;-72
2023/03/12 14:29:46;;;;;;;1.50;1.40;;;12.20;61.70;;;;;;5114885;28;20156;-72
2023/03/12 14:32:21;;;;;;;1.20;1.20;;;12.20;61.90;;;;;;5095992;28;20473;-71
2023/03/12 14:34:54;;;;;;;1.20;1.10;;;12.10;62.00;;;;;;5096178;28;20036;-72
2023/03/12 14:37:27;;;;;;;1.20;1.20;;;12.00;62.10;;;;;;5114141;28;20035;-74
2023/03/12 14:40:05;;;;;;;1.15;1.15;;;12.00;62.10;;;;;;5096055;28;20063;-72
2023/03/12 14:42:33;;;;;;;1.45;1.35;;;11.90;62.10;;;;;;5113860;28;20035;-75
2023/03/12 14:45:05;;;;;;;1.30;1.30;;;11.90;62.20;;;;;;5096323;28;20072;-72
2023/03/12 14:47:42;;;;;;;1.55;1.55;;;11.90;62.10;;;;;;5095637;28;20487;-74
2023/03/12 14:50:19;;;;;;;1.67;1.58;;;11.80;62.20;;;;;;5114709;28;20118;-75
2023/03/12 14:52:44;;;;;;;1.20;1.20;;;11.80;62.20;;;;;;5114127;28;20567;-70
2023/03/12 14:55:19;;;;;;;1.35;1.30;;;11.70;62.20;;;;;;5113823;28;20027;-75
2023/03/12 14:57:45;;;;;;;1.25;1.25;;;11.70;62.30;;;;;;5114199;28;20039;-73
2023/03/12 15:00:26;;;;;;;1.30;1.30;;;11.70;62.40;;;;;;5113888;28;20085;-72
2023/03/12 15:02:54;;;;;;;1.50;1.40;;;11.70;62.30;;;;;;5095970;28;20169;-70
2023/03/12 15:05:21;;;;;;;1.60;1.50;;;11.80;62.40;;;;;;5095531;28;20392;-70
2023/03/12 15:07:48;;;;;;;1.33;1.30;;;11.80;62.20;;;;;;5095446;28;20393;-72
2023/03/12 15:10:24;;;;;;;1.40;1.35;;;11.80;62.10;;;;;;5113855;28;20023;-72
2023/03/12 15:12:53;;;;;;;1.25;1.25;;;11.80;62.10;;;;;;5095545;28;20055;-72
2023/03/12 15:15:40;;;;;;;1.52;1.52;;;11.80;62.10;;;;;;5095113;28;20500;-72
2023/03/12 15:18:12;;;;;;;1.20;1.20;;;11.70;62.00;;;;;;5095417;28;20066;-73
2023/03/12 15:20:38;;;;;;;1.60;1.50;;;11.60;62.00;;;;;;5095334;28;20039;-70
2023/03/12 15:23:05;;;;;;;1.42;1.33;;;11.60;62.10;;;;;;5113302;28;20032;-72
2023/03/12 15:25:33;;;;;;;1.77;1.67;;;11.50;62.10;;;;;;5113350;28;20024;-73
2023/03/12 15:28:09;;;;;;;1.50;1.40;;;11.40;62.20;;;;;;5095424;28;20027;-71
2023/03/12 15:30:37;;;;;;;1.50;1.40;;;11.40;62.20;;;;;;5094970;28;20034;-70
2023/03/12 15:33:09;;;;;;;1.35;1.35;;;11.40;62.40;;;;;;5101871;28;20055;-71
2023/03/12 15:35:56;;;;;;;1.17;1.17;;;11.30;62.40;;;;;;5092875;28;20608;-70
2023/03/12 15:38:23;;;;;;;1.30;1.30;;;11.30;62.50;;;;;;5074953;28;20523;-73
2023/03/12 15:40:54;;;;;;;1.38;1.38;;;11.20;62.50;;;;;;5092789;28;20046;-71
2023/03/12 15:43:22;;;;;;;1.33;1.33;;;11.30;62.60;;;;;;5092583;28;20354;-74
2023/03/12 15:45:58;;;;;;;1.30;1.30;;;11.20;62.50;;;;;;5092935;28;20374;-70
2023/03/12 15:48:30;;;;;;;1.48;1.42;;;11.20;62.60;;;;;;5074604;28;20036;-71
2023/03/12 15:50:55;;;;;;;1.27;1.25;;;11.10;62.60;;;;;;5093262;28;20024;-69
2023/03/12 15:53:21;;;;;;;1.50;1.40;;;11.10;62.60;;;;;;5092529;28;20111;-71
2023/03/12 15:56:21;;;;;;;1.65;1.55;;;11.10;62.60;;;;;;5074509;28;20078;-71
2023/03/12 15:58:59;;;;;;;1.40;1.40;;;11.00;62.50;;;;;;5093345;28;20112;-76
2023/03/12 16:01:26;;;;;;;1.60;1.50;;;11.00;62.70;;;;;;5092709;28;20024;-72
2023/03/12 16:03:53;;;;;;;1.27;1.20;;;11.00;62.70;;;;;;5074453;28;20122;-70
2023/03/12 16:06:24;;;;;;;1.60;1.50;;;10.90;62.70;;;;;;5074601;28;20054;-72
2023/03/12 16:08:54;;;;;;;1.48;1.38;;;10.90;62.70;;;;;;5092468;28;20107;-70
2023/03/12 16:11:24;;;;;;;1.35;1.35;;;10.90;62.80;;;;;;5073569;28;20028;-72
2023/03/12 16:13:53;;;;;;;1.65;1.55;;;10.90;62.80;;;;;;5074555;28;20115;-72
2023/03/12 16:16:18;;;;;;;1.40;1.40;;;10.90;62.80;;;;;;5092605;28;20043;-72
2023/03/12 16:18:44;;;;;;;1.50;1.40;;;10.80;62.80;;;;;;5074707;28;20036;-72
2023/03/12 16:21:10;;;;;;;1.48;1.38;;;10.80;62.80;;;;;;5092834;28;20034;-72
2023/03/12 16:23:36;;;;;;;1.38;1.38;;;10.80;62.90;;;;;;5092441;28;20389;-73
2023/03/12 16:26:03;;;;;;;1.45;1.35;;;10.70;62.80;;;;;;5074098;28;20031;-73
2023/03/12 16:28:29;;;;;;;1.30;1.30;;;10.70;62.90;;;;;;5092591;28;20092;-73
2023/03/12 16:30:55;;;;;;;1.70;1.60;;;10.70;62.90;;;;;;5091575;28;20024;-76
2023/03/12 16:33:23;;;;;;;1.40;1.30;;;10.70;63.00;;;;;;5091269;28;20062;-73
2023/03/12 16:35:49;;;;;;;1.33;1.33;;;10.70;63.00;;;;;;5092350;28;20024;-74
2023/03/12 16:38:15;;;;;;;1.63;1.52;;;10.60;62.90;;;;;;5092115;28;20487;-74
2023/03/12 16:40:47;;;;;;;1.50;1.50;;;10.60;63.00;;;;;;5092017;28;20111;-73
2023/03/12 16:43:28;;;;;;;1.60;1.50;;;10.60;63.00;;;;;;5074015;28;20114;-77
2023/03/12 16:45:55;;;;;;;2.03;1.92;;;10.60;63.00;;;;;;5091801;28;20132;-73
2023/03/12 16:48:25;;;;;;;1.70;1.60;;;10.60;63.00;;;;;;5092990;28;20043;-74
2023/03/12 16:50:55;;;;;;;1.20;1.20;;;10.60;63.00;;;;;;5090861;28;20028;-75
2023/03/12 16:53:22;;;;;;;1.40;1.40;;;10.60;63.00;;;;;;5074243;28;20119;-72
2023/03/12 16:55:57;;;;;;;1.52;1.42;;;10.60;63.10;;;;;;5073937;28;20028;-73
2023/03/12 16:58:24;;;;;;;1.45;1.45;;;10.50;63.00;;;;;;5074196;28;20028;-72
2023/03/12 17:00:51;;;;;;;1.63;1.52;;;10.50;63.10;;;;;;5092475;28;20043;-73
2023/03/12 17:03:38;;;;;;;1.40;1.38;;;10.50;63.10;;;;;;5092017;28;20028;-73
2023/03/12 17:06:04;;;;;;;1.80;1.70;;;10.50;63.00;;;;;;5074095;28;20492;-72
2023/03/12 17:08:30;;;;;;;1.30;1.30;;;10.50;63.10;;;;;;5092060;28;20459;-72
2023/03/12 17:10:56;;;;;;;1.40;1.40;;;10.50;63.10;;;;;;5092076;28;20059;-74
2023/03/12 17:13:27;;;;;;;1.70;1.60;;;10.50;63.10;;;;;;5091980;28;20028;-72
2023/03/12 17:15:54;;;;;;;1.50;1.40;;;10.40;63.10;;;;;;5091712;28;20031;-73
2023/03/12 17:18:20;;;;;;;1.55;1.45;;;10.40;63.10;;;;;;5091815;28;20465;-73
2023/03/12 17:20:47;;;;;;;1.85;1.75;;;10.40;63.10;;;;;;5092067;28;20078;-76
2023/03/12 17:23:12;;;;;;;1.38;1.38;;;10.40;63.10;;;;;;5075313;28;20032;-73
2023/03/12 17:25:41;;;;;;;1.50;1.40;;;10.40;63.10;;;;;;5095639;28;20016;-74
2023/03/12 17:28:07;;;;;;;1.70;1.60;;;10.40;63.10;;;;;;5095360;28;20081;-73
2023/03/12 17:30:34;;;;;;;1.75;1.65;;;10.40;63.10;;;;;;5077222;28;20415;-76
2023/03/12 17:33:08;;;;;;;1.80;1.70;;;10.40;63.20;;;;;;5095136;28;20496;-72
2023/03/12 17:35:34;;;;;;;1.52;1.50;;;10.40;63.20;;;;;;5095309;28;20039;-72
2023/03/12 17:38:00;;;;;;;1.77;1.67;;;10.40;63.20;;;;;;5077379;28;20109;-73
2023/03/12 17:40:26;;;;;;;1.63;1.52;;;10.30;63.10;;;;;;5077316;28;20028;-73
2023/03/12 17:42:51;;;;;;;1.73;1.63;;;10.30;63.20;;;;;;5095290;28;20016;-74
2023/03/12 17:45:17;;;;;;;1.70;1.60;;;10.30;63.20;;;;;;5076356;28;20031;-72
2023/03/12 17:47:43;;;;;;;1.50;1.40;;;10.30;63.20;;;;;;5076447;28;20024;-74
2023/03/12 17:50:09;;;;;;;1.50;1.40;;;10.30;63.20;;;;;;5093421;28;20028;-73
2023/03/12 17:52:35;;;;;;;1.60;1.50;;;10.30;63.20;;;;;;5075949;28;20032;-72
2023/03/12 17:55:02;;;;;;;1.90;1.80;;;10.30;63.20;;;;;;5094996;28;20024;-73
2023/03/12 17:57:28;;;;;;;1.40;1.40;;;10.30;63.30;;;;;;5093892;28;20462;-74
2023/03/12 17:59:54;;;;;;;1.70;1.60;;;10.20;63.20;;;;;;5095394;28;20103;-74
2023/03/12 18:02:20;;;;;;;1.70;1.60;;;10.20;63.20;;;;;;5095162;28;20118;-73
2023/03/12 18:04:46;;;;;;;1.80;1.70;;;10.20;63.20;;;;;;5076702;28;20028;-74
2023/03/12 18:07:11;;;;;;;1.45;1.40;;;10.20;63.30;;;;;;5092774;28;20035;-75
2023/03/12 18:09:37;;;;;;;1.83;1.73;;;10.20;63.20;;;;;;5093400;28;20085;-77
2023/03/12 18:12:04;;;;;;;1.30;1.30;;;10.20;63.30;;;;;;5095030;28;20073;-74
2023/03/12 18:14:30;;;;;;;1.98;1.88;;;10.20;63.20;;;;;;5094851;28;20031;-74
2023/03/12 18:16:56;;;;;;;1.70;1.60;;;10.20;63.30;;;;;;5076453;28;20038;-74
2023/03/12 18:19:22;;;;;;;1.67;1.58;;;10.20;63.30;;;;;;5076390;28;20023;-77
2023/03/12 18:21:48;;;;;;;1.77;1.67;;;10.20;63.30;;;;;;5094659;28;20115;-73
2023/03/12 18:24:14;;;;;;;1.77;1.67;;;10.20;63.30;;;;;;5094668;28;20529;-74
2023/03/12 18:26:39;;;;;;;1.90;1.80;;;10.20;63.30;;;;;;5094597;28;20385;-73
2023/03/12 18:29:05;;;;;;;1.40;1.40;;;10.20;63.30;;;;;;5094175;28;20374;-74
2023/03/12 18:31:31;;;;;;;1.70;1.60;;;10.20;63.30;;;;;;5094610;28;20032;-74
2023/03/12 18:33:56;;;;;;;1.70;1.60;;;10.10;63.30;;;;;;5112875;28;20433;-73
2023/03/12 18:36:22;;;;;;;1.80;1.70;;;10.10;63.30;;;;;;5096318;28;20028;-75
2023/03/12 18:38:47;;;;;;;1.70;1.60;;;10.10;63.30;;;;;;5114460;28;20073;-77
2023/03/12 18:41:14;;;;;;;1.90;1.80;;;10.10;63.30;;;;;;5114929;28;20322;-73
2023/03/12 18:43:40;;;;;;;1.63;1.55;;;10.10;63.30;;;;;;5114638;28;20028;-73
2023/03/12 18:46:07;;;;;;;1.70;1.60;;;10.10;63.30;;;;;;5096335;28;20031;-73
2023/03/12 18:48:33;;;;;;;1.60;1.50;;;10.10;63.30;;;;;;5095967;28;20027;-73
2023/03/12 18:50:59;;;;;;;1.83;1.73;;;10.10;63.40;;;;;;5095057;28;20036;-73
2023/03/12 18:53:25;;;;;;;1.90;1.80;;;10.10;63.40;;;;;;5075886;28;20393;-72
2023/03/12 18:55:55;;;;;;;1.70;1.60;;;10.10;63.40;;;;;;5076378;28;20477;-75
2023/03/12 18:58:22;;;;;;;1.80;1.70;;;10.00;63.40;;;;;;5094290;28;20036;-73
2023/03/12 19:00:52;;;;;;;1.80;1.70;;;10.10;63.40;;;;;;5075647;28;20031;-75
2023/03/12 19:03:19;;;;;;;1.80;1.70;;;10.00;63.30;;;;;;5075774;28;20063;-72
2023/03/12 19:05:44;;;;;;;1.80;1.70;;;10.00;63.30;;;;;;5093970;28;20035;-74
2023/03/12 19:08:10;;;;;;;1.75;1.65;;;10.00;63.30;;;;;;5093815;28;20039;-73
2023/03/12 19:10:39;;;;;;;1.52;1.42;;;10.00;63.40;;;;;;5075896;28;20370;-73
2023/03/12 19:13:04;;;;;;;1.65;1.55;;;10.00;63.40;;;;;;5093934;28;20023;-73
2023/03/12 19:15:30;;;;;;;1.70;1.60;;;10.00;63.40;;;;;;5093512;28;20032;-73
2023/03/12 19:17:57;;;;;;;1.75;1.65;;;10.00;63.40;;;;;;5075585;28;20028;-73
2023/03/12 19:20:23;;;;;;;1.80;1.70;;;10.00;63.40;;;;;;5075495;28;20063;-73
2023/03/12 19:22:49;;;;;;;2.17;2.05;;;10.00;63.40;;;;;;5075053;28;20039;-75
2023/03/12 19:25:15;;;;;;;1.60;1.50;;;10.00;63.40;;;;;;5093246;28;20024;-73
2023/03/12 19:27:41;;;;;;;1.95;1.85;;;10.00;63.40;;;;;;5093411;28;20494;-72
2023/03/12 19:30:07;;;;;;;1.65;1.55;;;10.00;63.40;;;;;;5093329;28;20028;-73
2023/03/12 19:32:33;;;;;;;1.70;1.60;;;10.00;63.30;;;;;;5093480;28;20036;-72
2023/03/12 19:34:58;;;;;;;1.63;1.52;;;9.90;63.30;;;;;;5092910;28;20032;-74
2023/03/12 19:37:24;;;;;;;1.88;1.77;;;9.90;63.30;;;;;;5093047;28;20032;-73
2023/03/12 19:39:50;;;;;;;1.88;1.77;;;9.90;63.30;;;;;;5075107;28;20039;-73
2023/03/12 19:42:15;;;;;;;1.50;1.50;;;9.90;63.80;;;;;;5093300;28;20031;-74
2023/03/12 19:44:41;;;;;;;1.80;1.70;;;9.90;63.30;;;;;;5093292;28;20024;-76
2023/03/12 19:47:07;;;;;;;1.83;1.73;;;9.90;63.20;;;;;;5092660;28;20027;-72
2023/03/12 19:49:35;;;;;;;1.70;1.60;;;9.90;63.20;;;;;;5092852;28;20023;-73
2023/03/12 19:52:02;;;;;;;1.67;1.58;;;9.90;63.20;;;;;;5074926;28;20067;-73
2023/03/12 19:54:28;;;;;;;1.70;1.60;;;9.90;63.20;;;;;;5093028;28;20060;-73
2023/03/12 19:56:54;;;;;;;1.70;1.60;;;9.90;63.20;;;;;;5092982;28;20486;-74
2023/03/12 19:59:19;;;;;;;1.98;1.88;;;9.80;63.20;;;;;;5074780;28;20354;-73
2023/03/12 20:01:45;;;;;;;1.70;1.60;;;9.80;63.20;;;;;;5092834;28;20394;-73
2023/03/12 20:04:11;;;;;;;1.60;1.60;;;9.80;63.20;;;;;;5074963;28;20107;-74
2023/03/12 20:06:39;;;;;;;1.70;1.65;;;9.80;63.20;;;;;;5093369;28;20020;-72
2023/03/12 20:09:05;;;;;;;1.70;1.60;;;9.80;63.20;;;;;;5100430;28;20376;-72
2023/03/12 20:11:34;;;;;;;1.65;1.55;;;9.80;63.20;;;;;;5095765;28;20030;-73
2023/03/12 20:14:01;;;;;;;1.80;1.70;;;9.80;63.20;;;;;;5114535;28;20035;-72
2023/03/12 20:16:26;;;;;;;1.50;1.50;;;9.80;63.20;;;;;;5096394;28;20032;-72
2023/03/12 20:18:52;;;;;;;1.80;1.70;;;9.80;63.20;;;;;;5114407;28;20030;-73
2023/03/12 20:21:17;;;;;;;1.70;1.60;;;9.80;63.20;;;;;;5114585;28;20019;-74
2023/03/12 20:23:43;;;;;;;2.00;1.90;;;9.80;63.20;;;;;;5114260;28;20035;-73
2023/03/12 20:26:09;;;;;;;1.70;1.60;;;9.80;63.30;;;;;;5095818;28;20035;-73
2023/03/12 20:28:35;;;;;;;1.90;1.50;;;9.80;63.30;;;;;;5095302;28;20080;-72
2023/03/12 20:31:08;;;;;;;1.90;1.80;;;9.80;63.30;;;;;;5095726;28;20449;-73
2023/03/12 20:33:34;;;;;;;1.60;1.50;;;9.80;63.30;;;;;;5098477;28;20482;-73
2023/03/12 20:36:07;;;;;;;1.88;1.77;;;9.80;63.40;;;;;;5093300;28;20032;-73
2023/03/12 20:38:32;;;;;;;1.60;1.50;;;9.80;63.40;;;;;;5075221;28;20036;-73
2023/03/12 20:40:58;;;;;;;2.08;1.98;;;9.70;63.30;;;;;;5075514;28;20408;-72
2023/03/12 20:43:24;;;;;;;1.60;1.50;;;9.70;63.40;;;;;;5093693;28;20101;-72
2023/03/12 20:45:49;;;;;;;1.40;1.40;;;9.70;63.40;;;;;;5093768;28;20162;-73
2023/03/12 20:48:15;;;;;;;1.52;1.50;;;9.80;63.40;;;;;;5075296;28;20482;-71
2023/03/12 20:50:41;;;;;;;1.80;1.70;;;9.70;63.40;;;;;;5093234;28;20031;-71
2023/03/12 20:53:06;;;;;;;1.85;1.75;;;9.70;63.40;;;;;;5093604;28;20060;-71
2023/03/12 20:55:32;;;;;;;1.80;1.70;;;9.70;63.40;;;;;;5093603;28;20025;-71
2023/03/12 20:57:58;;;;;;;1.63;1.52;;;9.70;63.40;;;;;;5094894;28;20024;-72
2023/03/12 21:00:24;;;;;;;1.70;1.60;;;9.70;63.40;;;;;;5097116;28;20032;-72
2023/03/12 21:02:49;;;;;;;1.35;1.35;;;9.70;63.40;;;;;;5079176;28;20027;-72
2023/03/12 21:05:15;;;;;;;1.90;1.80;;;9.70;63.50;;;;;;5079013;28;20457;-72
2023/03/12 21:07:41;;;;;;;1.60;1.50;;;9.70;63.40;;;;;;5097487;28;20064;-71
2023/03/12 21:10:08;;;;;;;1.80;1.70;;;9.70;63.40;;;;;;5097168;28;20461;-73
2023/03/12 21:12:33;;;;;;;1.77;1.67;;;9.70;63.40;;;;;;5096950;28;20045;-72
2023/03/12 21:15:05;;;;;;;1.90;1.80;;;9.70;63.40;;;;;;5078788;28;20146;-73
2023/03/12 21:17:35;;;;;;;1.70;1.60;;;9.70;63.40;;;;;;5078695;28;20043;-74
2023/03/12 21:20:09;;;;;;;1.60;1.50;;;9.70;63.50;;;;;;5097460;28;20373;-72
2023/03/12 21:22:35;;;;;;;1.80;1.70;;;9.70;63.40;;;;;;5097148;28;20468;-71
2023/03/12 21:25:01;;;;;;;1.77;1.67;;;9.70;63.40;;;;;;5079204;28;20532;-73
2023/03/12 21:27:26;;;;;;;1.50;1.50;;;9.70;63.40;;;;;;5078947;28;20162;-73
2023/03/12 21:29:53;;;;;;;1.70;1.60;;;9.70;63.50;;;;;;5078679;28;20028;-71
2023/03/12 21:32:19;;;;;;;1.52;1.50;;;9.70;63.50;;;;;;5078228;28;20047;-71
2023/03/12 21:34:45;;;;;;;1.80;1.70;;;9.70;63.50;;;;;;5079088;28;20089;-71
2023/03/12 21:37:11;;;;;;;1.60;1.50;;;9.70;63.50;;;;;;5078360;28;20032;-72
2023/03/12 21:39:36;;;;;;;1.42;1.42;;;9.70;63.50;;;;;;5096616;28;20032;-71
2023/03/12 21:42:02;;;;;;;1.80;1.70;;;9.70;63.50;;;;;;5078753;28;20031;-71
2023/03/12 21:44:28;;;;;;;1.85;1.75;;;9.60;63.40;;;;;;5096570;28;20081;-71
2023/03/12 21:46:54;;;;;;;1.60;1.50;;;9.60;63.50;;;;;;5096209;28;20457;-71
2023/03/12 21:49:19;;;;;;;1.60;1.50;;;9.60;63.40;;;;;;5078933;28;20032;-71
2023/03/12 21:51:45;;;;;;;1.75;1.65;;;9.60;63.50;;;;;;5096667;28;20466;-72
2023/03/12 21:54:11;;;;;;;1.70;1.60;;;9.60;63.40;;;;;;5078283;28;20032;-72
2023/03/12 21:56:36;;;;;;;1.70;1.60;;;9.60;63.40;;;;;;5096231;28;20098;-73
2023/03/12 21:59:02;;;;;;;1.52;1.52;;;9.60;63.40;;;;;;5096442;28;20067;-72
2023/03/12 22:01:28;;;;;;;1.70;1.65;;;9.60;63.40;;;;;;5095893;28;20104;-72
2023/03/12 22:03:54;;;;;;;1.80;1.70;;;9.60;63.40;;;;;;5096531;28;20517;-72
2023/03/12 22:06:20;;;;;;;1.90;1.80;;;9.60;63.40;;;;;;5096129;28;20032;-72
2023/03/12 22:08:47;;;;;;;1.60;1.50;;;9.60;63.40;;;;;;5077014;28;20026;-72
2023/03/12 22:11:13;;;;;;;1.70;1.60;;;9.60;63.40;;;;;;5077429;28;20043;-73
2023/03/12 22:13:39;;;;;;;1.80;1.70;;;9.60;64.00;;;;;;5077908;28;20453;-72
2023/03/12 22:16:07;;;;;;;1.88;1.77;;;9.60;63.40;;;;;;5095918;28;20020;-73
2023/03/12 22:18:37;;;;;;;1.42;1.42;;;9.60;63.40;;;;;;5095649;28;20057;-72
2023/03/12 22:21:06;;;;;;;1.70;1.60;;;9.50;63.40;;;;;;5095990;28;20103;-71
2023/03/12 22:23:34;;;;;;;1.50;1.50;;;9.60;63.40;;;;;;5096164;28;20016;-71
2023/03/12 22:26:01;;;;;;;1.40;1.40;;;9.60;63.50;;;;;;5095619;28;20376;-72
2023/03/12 22:28:27;;;;;;;1.63;1.52;;;9.60;63.40;;;;;;5095680;28;20032;-71
2023/03/12 22:31:01;;;;;;;1.70;1.60;;;9.60;63.40;;;;;;5095923;28;20030;-71
2023/03/12 22:33:27;;;;;;;1.85;1.75;;;9.60;63.40;;;;;;5090003;28;20051;-72
2023/03/12 22:35:53;;;;;;;1.60;1.52;;;9.60;63.40;;;;;;5116262;28;20077;-72
2023/03/12 22:38:20;;;;;;;1.85;1.75;;;9.60;63.40;;;;;;5115742;28;20028;-72
2023/03/12 22:40:46;;;;;;;1.70;1.60;;;9.50;63.40;;;;;;5097787;28;20028;-72
2023/03/12 22:43:12;;;;;;;1.95;1.85;;;9.60;63.40;;;;;;5116059;28;20464;-71
2023/03/12 22:45:38;;;;;;;1.73;1.63;;;9.50;63.40;;;;;;5116404;28;20024;-72
2023/03/12 22:48:04;;;;;;;1.55;1.45;;;9.50;63.40;;;;;;5115585;28;20027;-72
2023/03/12 22:50:30;;;;;;;1.70;1.60;;;9.50;63.40;;;;;;5115767;28;20027;-73
2023/03/12 22:52:56;;;;;;;1.50;1.50;;;9.50;63.40;;;;;;5115915;28;20074;-73
2023/03/12 22:55:22;;;;;;;1.80;1.70;;;9.50;63.40;;;;;;5115718;28;20023;-72
2023/03/12 22:57:48;;;;;;;1.52;1.50;;;9.50;63.40;;;;;;5115179;28;20023;-72
2023/03/12 23:00:16;;;;;;;1.73;1.63;;;9.50;63.40;;;;;;5115512;28;20083;-72
2023/03/12 23:02:42;;;;;;;1.50;1.50;;;9.50;63.40;;;;;;5097142;28;20032;-72
2023/03/12 23:05:08;;;;;;;1.70;1.60;;;9.50;63.40;;;;;;5115238;28;20027;-72
2023/03/12 23:07:35;;;;;;;1.50;1.50;;;9.50;63.40;;;;;;5115202;28;20032;-73
2023/03/12 23:10:01;;;;;;;1.80;1.70;;;9.50;63.50;;;;;;5095985;28;20028;-72
2023/03/12 23:12:28;;;;;;;1.92;1.83;;;9.50;63.50;;;;;;5114866;28;20095;-72
2023/03/12 23:14:53;;;;;;;1.70;1.60;;;9.50;63.50;;;;;;5097329;28;20103;-72
2023/03/12 23:17:19;;;;;;;1.60;1.50;;;9.50;63.50;;;;;;5096793;28;20553;-72
2023/03/12 23:19:45;;;;;;;1.70;1.60;;;9.50;63.50;;;;;;5096750;28;20032;-72
2023/03/12 23:22:10;;;;;;;1.65;1.60;;;9.50;63.50;;;;;;5114919;28;20059;-72
2023/03/12 23:24:36;;;;;;;1.90;1.80;;;9.50;63.50;;;;;;5114940;28;20048;-74
2023/03/12 23:27:02;;;;;;;1.63;1.55;;;9.50;63.50;;;;;;5114715;28;20484;-73
2023/03/12 23:29:29;;;;;;;1.60;1.50;;;9.50;63.50;;;;;;5096665;28;20024;-72
2023/03/12 23:31:55;;;;;;;1.70;1.60;;;9.50;63.50;;;;;;5115207;28;20461;-73
2023/03/12 23:34:21;;;;;;;1.85;1.75;;;9.40;63.40;;;;;;5094288;28;20108;-73
2023/03/12 23:36:46;;;;;;;1.40;1.40;;;9.50;63.50;;;;;;5094364;28;20448;-72
2023/03/12 23:39:12;;;;;;;1.50;1.50;;;9.50;63.50;;;;;;5094509;28;20028;-72
2023/03/12 23:41:38;;;;;;;1.70;1.60;;;9.40;63.40;;;;;;5094088;28;20037;-72
2023/03/12 23:44:04;;;;;;;1.98;1.80;;;9.50;63.50;;;;;;5094350;28;20024;-72
2023/03/12 23:46:30;;;;;;;1.63;1.60;;;9.50;63.50;;;;;;5094322;28;20020;-72
2023/03/12 23:48:56;;;;;;;1.50;1.50;;;9.50;63.50;;;;;;5094116;28;20100;-72
2023/03/12 23:51:30;;;;;;;1.80;1.70;;;9.40;63.40;;;;;;5093980;28;20366;-73
2023/03/12 23:54:04;;;;;;;1.70;1.60;;;9.50;63.40;;;;;;5094442;28;20043;-72
2023/03/12 23:56:38;;;;;;;1.70;1.60;;;9.40;63.40;;;;;;5076586;28;20038;-72
2023/03/12 23:59:05;;;;;;;1.70;1.60;;;9.40;63.40;;;;;;5094306;28;20032;-72
